sensor_id;sensor_type;location;lat;lon;timestamp;P1;durP1;ratioP1;P2;durP2;ratioP2
31442;SDS011;18065;55.876;9.830;2022-12-10T00:01:45;5.50;;;5.00;;
31442;SDS011;18065;55.876;9.830;2022-12-10T00:04:17;5.97;;;5.35;;
31442;SDS011;18065;55.876;9.830;2022-12-10T00:06:46;5.43;;;4.97;;
31442;SDS011;18065;55.876;9.830;2022-12-10T00:09:17;5.25;;;4.80;;
31442;SDS011;18065;55.876;9.830;2022-12-10T00:11:47;5.60;;;4.95;;
31442;SDS011;18065;55.876;9.830;2022-12-10T00:14:16;6.13;;;5.30;;
31442;SDS011;18065;55.876;9.830;2022-12-10T00:16:45;5.57;;;5.07;;
31442;SDS011;18065;55.876;9.830;2022-12-10T00:19:16;5.40;;;4.90;;
31442;SDS011;18065;55.876;9.830;2022-12-10T00:21:45;5.43;;;4.93;;
31442;SDS011;18065;55.876;9.830;2022-12-10T00:24:14;5.95;;;5.22;;
31442;SDS011;18065;55.876;9.830;2022-12-10T00:26:42;5.57;;;5.07;;
31442;SDS011;18065;55.876;9.830;2022-12-10T00:29:11;5.70;;;5.20;;
31442;SDS011;18065;55.876;9.830;2022-12-10T00:31:40;5.72;;;5.18;;
31442;SDS011;18065;55.876;9.830;2022-12-10T00:34:09;5.75;;;4.80;;
31442;SDS011;18065;55.876;9.830;2022-12-10T00:36:42;5.65;;;5.15;;
31442;SDS011;18065;55.876;9.830;2022-12-10T00:39:14;5.60;;;5.05;;
31442;SDS011;18065;55.876;9.830;2022-12-10T00:41:44;6.43;;;4.93;;
31442;SDS011;18065;55.876;9.830;2022-12-10T00:44:13;5.15;;;4.65;;
31442;SDS011;18065;55.876;9.830;2022-12-10T00:46:43;5.40;;;4.90;;
31442;SDS011;18065;55.876;9.830;2022-12-10T00:49:12;5.43;;;4.90;;
31442;SDS011;18065;55.876;9.830;2022-12-10T00:51:43;5.82;;;4.90;;
31442;SDS011;18065;55.876;9.830;2022-12-10T00:54:12;5.38;;;4.88;;
31442;SDS011;18065;55.876;9.830;2022-12-10T00:56:41;5.20;;;4.70;;
31442;SDS011;18065;55.876;9.830;2022-12-10T00:59:09;5.80;;;4.68;;
31442;SDS011;18065;55.876;9.830;2022-12-10T01:01:39;6.00;;;5.45;;
31442;SDS011;18065;55.876;9.830;2022-12-10T01:04:10;5.05;;;4.55;;
31442;SDS011;18065;55.876;9.830;2022-12-10T01:06:41;4.82;;;4.40;;
31442;SDS011;18065;55.876;9.830;2022-12-10T01:09:13;5.32;;;4.90;;
31442;SDS011;18065;55.876;9.830;2022-12-10T01:11:44;5.03;;;4.57;;
31442;SDS011;18065;55.876;9.830;2022-12-10T01:14:15;4.90;;;4.50;;
31442;SDS011;18065;55.876;9.830;2022-12-10T01:16:46;5.35;;;4.90;;
31442;SDS011;18065;55.876;9.830;2022-12-10T01:19:18;4.70;;;4.30;;
31442;SDS011;18065;55.876;9.830;2022-12-10T01:21:52;5.18;;;4.68;;
31442;SDS011;18065;55.876;9.830;2022-12-10T01:24:20;6.05;;;5.30;;
31442;SDS011;18065;55.876;9.830;2022-12-10T01:26:50;5.78;;;4.78;;
31442;SDS011;18065;55.876;9.830;2022-12-10T01:29:20;4.78;;;4.30;;
31442;SDS011;18065;55.876;9.830;2022-12-10T01:31:50;5.13;;;4.63;;
31442;SDS011;18065;55.876;9.830;2022-12-10T01:34:20;4.95;;;4.53;;
31442;SDS011;18065;55.876;9.830;2022-12-10T01:36:52;5.03;;;4.53;;
31442;SDS011;18065;55.876;9.830;2022-12-10T01:39:22;4.78;;;4.35;;
31442;SDS011;18065;55.876;9.830;2022-12-10T01:41:51;4.60;;;4.20;;
31442;SDS011;18065;55.876;9.830;2022-12-10T01:47:19;5.20;;;4.70;;
31442;SDS011;18065;55.876;9.830;2022-12-10T01:49:49;5.05;;;4.53;;
31442;SDS011;18065;55.876;9.830;2022-12-10T01:52:20;5.25;;;4.75;;
31442;SDS011;18065;55.876;9.830;2022-12-10T01:54:49;6.97;;;4.57;;
31442;SDS011;18065;55.876;9.830;2022-12-10T01:57:19;5.10;;;4.13;;
31442;SDS011;18065;55.876;9.830;2022-12-10T01:59:51;5.30;;;4.85;;
31442;SDS011;18065;55.876;9.830;2022-12-10T02:02:26;4.80;;;4.40;;
31442;SDS011;18065;55.876;9.830;2022-12-10T02:05:05;4.65;;;4.25;;
31442;SDS011;18065;55.876;9.830;2022-12-10T02:07:49;4.72;;;4.28;;
31442;SDS011;18065;55.876;9.830;2022-12-10T02:10:26;4.82;;;4.40;;
31442;SDS011;18065;55.876;9.830;2022-12-10T02:13:11;4.70;;;4.30;;
31442;SDS011;18065;55.876;9.830;2022-12-10T02:15:51;5.47;;;4.55;;
31442;SDS011;18065;55.876;9.830;2022-12-10T02:18:24;4.45;;;4.05;;
31442;SDS011;18065;55.876;9.830;2022-12-10T02:20:57;4.50;;;4.10;;
31442;SDS011;18065;55.876;9.830;2022-12-10T02:23:32;4.77;;;4.37;;
31442;SDS011;18065;55.876;9.830;2022-12-10T02:26:04;4.82;;;4.40;;
31442;SDS011;18065;55.876;9.830;2022-12-10T02:28:39;4.72;;;4.03;;
31442;SDS011;18065;55.876;9.830;2022-12-10T02:31:17;5.38;;;4.88;;
31442;SDS011;18065;55.876;9.830;2022-12-10T02:33:48;4.47;;;4.07;;
31442;SDS011;18065;55.876;9.830;2022-12-10T02:36:19;4.90;;;4.38;;
31442;SDS011;18065;55.876;9.830;2022-12-10T02:38:49;4.43;;;4.03;;
31442;SDS011;18065;55.876;9.830;2022-12-10T02:41:22;4.70;;;4.30;;
31442;SDS011;18065;55.876;9.830;2022-12-10T02:43:56;4.57;;;4.10;;
31442;SDS011;18065;55.876;9.830;2022-12-10T02:46:29;4.32;;;3.92;;
31442;SDS011;18065;55.876;9.830;2022-12-10T02:49:00;4.43;;;4.03;;
31442;SDS011;18065;55.876;9.830;2022-12-10T02:51:31;4.20;;;3.80;;
31442;SDS011;18065;55.876;9.830;2022-12-10T02:54:00;4.10;;;3.70;;
31442;SDS011;18065;55.876;9.830;2022-12-10T02:56:32;7.40;;;4.25;;
31442;SDS011;18065;55.876;9.830;2022-12-10T02:59:06;4.47;;;4.07;;
31442;SDS011;18065;55.876;9.830;2022-12-10T03:01:48;4.47;;;4.18;;
31442;SDS011;18065;55.876;9.830;2022-12-10T03:04:28;4.75;;;4.35;;
31442;SDS011;18065;55.876;9.830;2022-12-10T03:07:02;4.60;;;4.20;;
31442;SDS011;18065;55.876;9.830;2022-12-10T03:12:09;4.10;;;3.80;;
31442;SDS011;18065;55.876;9.830;2022-12-10T03:14:45;4.63;;;4.20;;
31442;SDS011;18065;55.876;9.830;2022-12-10T03:17:17;4.20;;;3.90;;
31442;SDS011;18065;55.876;9.830;2022-12-10T03:19:47;4.20;;;3.83;;
31442;SDS011;18065;55.876;9.830;2022-12-10T03:22:19;4.43;;;4.05;;
31442;SDS011;18065;55.876;9.830;2022-12-10T03:24:48;4.38;;;3.97;;
31442;SDS011;18065;55.876;9.830;2022-12-10T03:27:19;4.18;;;3.85;;
31442;SDS011;18065;55.876;9.830;2022-12-10T03:29:50;4.75;;;3.80;;
31442;SDS011;18065;55.876;9.830;2022-12-10T03:32:24;4.72;;;3.67;;
31442;SDS011;18065;55.876;9.830;2022-12-10T03:34:55;4.07;;;3.67;;
31442;SDS011;18065;55.876;9.830;2022-12-10T03:37:26;4.22;;;3.83;;
31442;SDS011;18065;55.876;9.830;2022-12-10T03:39:56;4.53;;;3.95;;
31442;SDS011;18065;55.876;9.830;2022-12-10T03:42:26;4.32;;;3.85;;
31442;SDS011;18065;55.876;9.830;2022-12-10T03:44:55;4.70;;;4.20;;
31442;SDS011;18065;55.876;9.830;2022-12-10T03:47:26;4.43;;;3.90;;
31442;SDS011;18065;55.876;9.830;2022-12-10T03:49:55;4.38;;;3.97;;
31442;SDS011;18065;55.876;9.830;2022-12-10T03:52:24;3.78;;;3.42;;
31442;SDS011;18065;55.876;9.830;2022-12-10T03:54:52;3.85;;;3.55;;
31442;SDS011;18065;55.876;9.830;2022-12-10T03:57:21;3.92;;;3.63;;
31442;SDS011;18065;55.876;9.830;2022-12-10T03:59:50;4.32;;;3.90;;
31442;SDS011;18065;55.876;9.830;2022-12-10T04:02:18;4.65;;;3.78;;
31442;SDS011;18065;55.876;9.830;2022-12-10T04:04:50;3.65;;;3.35;;
31442;SDS011;18065;55.876;9.830;2022-12-10T04:07:18;3.88;;;3.58;;
31442;SDS011;18065;55.876;9.830;2022-12-10T04:09:47;3.83;;;3.53;;
31442;SDS011;18065;55.876;9.830;2022-12-10T04:12:16;3.67;;;3.38;;
31442;SDS011;18065;55.876;9.830;2022-12-10T04:14:45;3.83;;;3.53;;
31442;SDS011;18065;55.876;9.830;2022-12-10T04:17:26;4.10;;;3.50;;
31442;SDS011;18065;55.876;9.830;2022-12-10T04:19:57;3.83;;;3.47;;
31442;SDS011;18065;55.876;9.830;2022-12-10T04:22:26;3.95;;;3.65;;
31442;SDS011;18065;55.876;9.830;2022-12-10T04:25:07;3.58;;;3.28;;
31442;SDS011;18065;55.876;9.830;2022-12-10T04:27:51;3.90;;;3.50;;
31442;SDS011;18065;55.876;9.830;2022-12-10T04:30:19;3.90;;;3.60;;
31442;SDS011;18065;55.876;9.830;2022-12-10T04:32:48;3.88;;;3.50;;
31442;SDS011;18065;55.876;9.830;2022-12-10T04:35:19;4.15;;;3.47;;
31442;SDS011;18065;55.876;9.830;2022-12-10T04:37:48;3.92;;;3.55;;
31442;SDS011;18065;55.876;9.830;2022-12-10T04:40:17;4.07;;;3.47;;
31442;SDS011;18065;55.876;9.830;2022-12-10T04:42:45;4.07;;;3.75;;
31442;SDS011;18065;55.876;9.830;2022-12-10T04:45:14;3.50;;;3.20;;
31442;SDS011;18065;55.876;9.830;2022-12-10T04:47:43;3.72;;;3.42;;
31442;SDS011;18065;55.876;9.830;2022-12-10T04:50:11;3.65;;;3.45;;
31442;SDS011;18065;55.876;9.830;2022-12-10T04:52:43;2.95;;;2.75;;
31442;SDS011;18065;55.876;9.830;2022-12-10T04:55:12;3.72;;;3.17;;
31442;SDS011;18065;55.876;9.830;2022-12-10T04:57:42;3.45;;;3.15;;
31442;SDS011;18065;55.876;9.830;2022-12-10T05:00:11;3.53;;;3.22;;
31442;SDS011;18065;55.876;9.830;2022-12-10T05:02:40;3.78;;;3.42;;
31442;SDS011;18065;55.876;9.830;2022-12-10T05:05:09;3.53;;;3.22;;
31442;SDS011;18065;55.876;9.830;2022-12-10T05:07:38;3.83;;;3.15;;
31442;SDS011;18065;55.876;9.830;2022-12-10T05:10:09;3.60;;;3.20;;
31442;SDS011;18065;55.876;9.830;2022-12-10T05:12:38;3.15;;;2.83;;
31442;SDS011;18065;55.876;9.830;2022-12-10T05:15:07;3.45;;;3.15;;
31442;SDS011;18065;55.876;9.830;2022-12-10T05:17:36;3.65;;;3.35;;
31442;SDS011;18065;55.876;9.830;2022-12-10T05:20:07;4.97;;;3.15;;
31442;SDS011;18065;55.876;9.830;2022-12-10T05:22:36;3.70;;;3.40;;
31442;SDS011;18065;55.876;9.830;2022-12-10T05:25:20;3.55;;;3.25;;
31442;SDS011;18065;55.876;9.830;2022-12-10T05:27:48;3.03;;;2.80;;
31442;SDS011;18065;55.876;9.830;2022-12-10T05:30:18;3.40;;;3.10;;
31442;SDS011;18065;55.876;9.830;2022-12-10T05:32:47;3.53;;;3.22;;
31442;SDS011;18065;55.876;9.830;2022-12-10T05:35:15;2.92;;;2.72;;
31442;SDS011;18065;55.876;9.830;2022-12-10T05:37:44;3.38;;;3.13;;
31442;SDS011;18065;55.876;9.830;2022-12-10T05:40:13;3.20;;;2.90;;
31442;SDS011;18065;55.876;9.830;2022-12-10T05:42:44;3.00;;;2.80;;
31442;SDS011;18065;55.876;9.830;2022-12-10T05:45:13;4.00;;;3.35;;
31442;SDS011;18065;55.876;9.830;2022-12-10T05:47:42;3.78;;;3.47;;
31442;SDS011;18065;55.876;9.830;2022-12-10T05:50:11;3.88;;;3.33;;
31442;SDS011;18065;55.876;9.830;2022-12-10T05:52:39;3.40;;;3.10;;
31442;SDS011;18065;55.876;9.830;2022-12-10T05:55:08;3.03;;;2.72;;
31442;SDS011;18065;55.876;9.830;2022-12-10T05:57:37;3.92;;;3.20;;
31442;SDS011;18065;55.876;9.830;2022-12-10T06:00:09;3.17;;;2.90;;
31442;SDS011;18065;55.876;9.830;2022-12-10T06:02:39;3.33;;;3.03;;
31442;SDS011;18065;55.876;9.830;2022-12-10T06:05:07;3.92;;;3.42;;
31442;SDS011;18065;55.876;9.830;2022-12-10T06:07:37;2.97;;;2.78;;
31442;SDS011;18065;55.876;9.830;2022-12-10T06:10:05;3.10;;;2.90;;
31442;SDS011;18065;55.876;9.830;2022-12-10T06:12:35;3.45;;;3.15;;
31442;SDS011;18065;55.876;9.830;2022-12-10T06:15:05;3.00;;;2.70;;
31442;SDS011;18065;55.876;9.830;2022-12-10T06:17:37;3.15;;;2.85;;
31442;SDS011;18065;55.876;9.830;2022-12-10T06:20:06;3.20;;;3.00;;
31442;SDS011;18065;55.876;9.830;2022-12-10T06:22:36;3.00;;;2.70;;
31442;SDS011;18065;55.876;9.830;2022-12-10T06:25:05;3.03;;;2.83;;
31442;SDS011;18065;55.876;9.830;2022-12-10T06:27:34;3.42;;;3.13;;
31442;SDS011;18065;55.876;9.830;2022-12-10T06:30:03;3.13;;;2.92;;
31442;SDS011;18065;55.876;9.830;2022-12-10T06:32:32;3.60;;;3.30;;
31442;SDS011;18065;55.876;9.830;2022-12-10T06:35:04;3.70;;;3.10;;
31442;SDS011;18065;55.876;9.830;2022-12-10T06:37:33;2.92;;;2.72;;
31442;SDS011;18065;55.876;9.830;2022-12-10T06:40:02;3.50;;;3.05;;
31442;SDS011;18065;55.876;9.830;2022-12-10T06:42:32;3.67;;;3.38;;
31442;SDS011;18065;55.876;9.830;2022-12-10T06:45:01;3.40;;;3.13;;
31442;SDS011;18065;55.876;9.830;2022-12-10T06:47:29;3.40;;;3.10;;
31442;SDS011;18065;55.876;9.830;2022-12-10T06:49:58;3.20;;;2.95;;
31442;SDS011;18065;55.876;9.830;2022-12-10T06:52:29;3.28;;;2.90;;
31442;SDS011;18065;55.876;9.830;2022-12-10T06:54:58;3.13;;;2.83;;
31442;SDS011;18065;55.876;9.830;2022-12-10T06:57:27;3.45;;;2.75;;
31442;SDS011;18065;55.876;9.830;2022-12-10T06:59:56;3.03;;;2.72;;
31442;SDS011;18065;55.876;9.830;2022-12-10T07:02:24;3.45;;;3.15;;
31442;SDS011;18065;55.876;9.830;2022-12-10T07:04:53;3.13;;;2.83;;
31442;SDS011;18065;55.876;9.830;2022-12-10T07:07:22;3.15;;;2.85;;
31442;SDS011;18065;55.876;9.830;2022-12-10T07:09:53;2.85;;;2.65;;
31442;SDS011;18065;55.876;9.830;2022-12-10T07:12:22;3.10;;;2.85;;
31442;SDS011;18065;55.876;9.830;2022-12-10T07:14:51;3.00;;;2.50;;
31442;SDS011;18065;55.876;9.830;2022-12-10T07:17:19;3.22;;;2.85;;
31442;SDS011;18065;55.876;9.830;2022-12-10T07:19:48;3.28;;;2.60;;
31442;SDS011;18065;55.876;9.830;2022-12-10T07:22:17;2.53;;;2.33;;
31442;SDS011;18065;55.876;9.830;2022-12-10T07:24:47;2.97;;;2.78;;
31442;SDS011;18065;55.876;9.830;2022-12-10T07:27:19;3.13;;;2.92;;
31442;SDS011;18065;55.876;9.830;2022-12-10T07:29:47;3.00;;;2.80;;
31442;SDS011;18065;55.876;9.830;2022-12-10T07:32:17;2.88;;;2.58;;
31442;SDS011;18065;55.876;9.830;2022-12-10T07:34:45;3.40;;;3.10;;
31442;SDS011;18065;55.876;9.830;2022-12-10T07:37:14;2.78;;;2.55;;
31442;SDS011;18065;55.876;9.830;2022-12-10T07:39:42;3.88;;;2.83;;
31442;SDS011;18065;55.876;9.830;2022-12-10T07:42:11;2.67;;;2.47;;
31442;SDS011;18065;55.876;9.830;2022-12-10T07:44:43;2.60;;;2.40;;
31442;SDS011;18065;55.876;9.830;2022-12-10T07:47:11;2.88;;;2.45;;
31442;SDS011;18065;55.876;9.830;2022-12-10T07:49:40;2.63;;;2.42;;
31442;SDS011;18065;55.876;9.830;2022-12-10T07:52:09;2.70;;;2.50;;
31442;SDS011;18065;55.876;9.830;2022-12-10T07:54:37;2.53;;;2.33;;
31442;SDS011;18065;55.876;9.830;2022-12-10T07:57:06;2.70;;;2.50;;
31442;SDS011;18065;55.876;9.830;2022-12-10T07:59:35;2.72;;;2.50;;
31442;SDS011;18065;55.876;9.830;2022-12-10T08:02:07;2.53;;;2.33;;
31442;SDS011;18065;55.876;9.830;2022-12-10T08:04:36;2.40;;;2.20;;
31442;SDS011;18065;55.876;9.830;2022-12-10T08:07:05;2.85;;;2.63;;
31442;SDS011;18065;55.876;9.830;2022-12-10T08:09:34;2.50;;;2.30;;
31442;SDS011;18065;55.876;9.830;2022-12-10T08:12:02;3.20;;;2.85;;
31442;SDS011;18065;55.876;9.830;2022-12-10T08:14:31;2.88;;;2.60;;
31442;SDS011;18065;55.876;9.830;2022-12-10T08:17:00;2.58;;;2.38;;
31442;SDS011;18065;55.876;9.830;2022-12-10T08:19:31;2.97;;;2.38;;
31442;SDS011;18065;55.876;9.830;2022-12-10T08:22:00;2.88;;;2.33;;
31442;SDS011;18065;55.876;9.830;2022-12-10T08:24:29;2.83;;;2.63;;
31442;SDS011;18065;55.876;9.830;2022-12-10T08:26:57;2.83;;;2.47;;
31442;SDS011;18065;55.876;9.830;2022-12-10T08:29:26;2.63;;;2.42;;
31442;SDS011;18065;55.876;9.830;2022-12-10T08:31:55;3.00;;;2.55;;
31442;SDS011;18065;55.876;9.830;2022-12-10T08:34:23;2.47;;;2.28;;
31442;SDS011;18065;55.876;9.830;2022-12-10T08:36:55;3.65;;;2.60;;
31442;SDS011;18065;55.876;9.830;2022-12-10T08:39:23;2.58;;;2.38;;
31442;SDS011;18065;55.876;9.830;2022-12-10T08:41:52;3.10;;;2.80;;
31442;SDS011;18065;55.876;9.830;2022-12-10T08:44:21;3.72;;;3.42;;
31442;SDS011;18065;55.876;9.830;2022-12-10T08:46:49;3.95;;;3.65;;
31442;SDS011;18065;55.876;9.830;2022-12-10T08:49:18;4.05;;;3.65;;
31442;SDS011;18065;55.876;9.830;2022-12-10T08:51:47;9.18;;;4.30;;
31442;SDS011;18065;55.876;9.830;2022-12-10T08:54:18;5.03;;;4.03;;
31442;SDS011;18065;55.876;9.830;2022-12-10T08:56:47;5.28;;;4.38;;
31442;SDS011;18065;55.876;9.830;2022-12-10T08:59:16;4.90;;;4.43;;
31442;SDS011;18065;55.876;9.830;2022-12-10T09:01:44;4.63;;;4.13;;
31442;SDS011;18065;55.876;9.830;2022-12-10T09:04:13;4.82;;;4.30;;
31442;SDS011;18065;55.876;9.830;2022-12-10T09:06:42;4.93;;;4.43;;
31442;SDS011;18065;55.876;9.830;2022-12-10T09:09:11;5.30;;;4.50;;
31442;SDS011;18065;55.876;9.830;2022-12-10T09:11:44;5.20;;;4.70;;
31442;SDS011;18065;55.876;9.830;2022-12-10T09:14:13;5.57;;;4.40;;
31442;SDS011;18065;55.876;9.830;2022-12-10T09:16:42;5.43;;;4.93;;
31442;SDS011;18065;55.876;9.830;2022-12-10T09:19:10;4.50;;;4.10;;
31442;SDS011;18065;55.876;9.830;2022-12-10T09:21:39;4.40;;;4.00;;
31442;SDS011;18065;55.876;9.830;2022-12-10T09:24:08;5.05;;;4.55;;
31442;SDS011;18065;55.876;9.830;2022-12-10T09:26:37;5.32;;;4.68;;
31442;SDS011;18065;55.876;9.830;2022-12-10T09:29:08;4.72;;;4.13;;
31442;SDS011;18065;55.876;9.830;2022-12-10T09:31:37;4.68;;;4.28;;
31442;SDS011;18065;55.876;9.830;2022-12-10T09:34:05;5.22;;;4.72;;
31442;SDS011;18065;55.876;9.830;2022-12-10T09:36:34;4.97;;;4.47;;
31442;SDS011;18065;55.876;9.830;2022-12-10T09:39:03;5.30;;;4.80;;
31442;SDS011;18065;55.876;9.830;2022-12-10T09:41:37;5.18;;;4.68;;
31442;SDS011;18065;55.876;9.830;2022-12-10T09:44:25;4.70;;;4.30;;
31442;SDS011;18065;55.876;9.830;2022-12-10T09:47:05;4.70;;;4.30;;
31442;SDS011;18065;55.876;9.830;2022-12-10T09:49:39;4.40;;;4.00;;
31442;SDS011;18065;55.876;9.830;2022-12-10T09:52:19;5.05;;;4.55;;
31442;SDS011;18065;55.876;9.830;2022-12-10T09:54:52;6.20;;;5.28;;
31442;SDS011;18065;55.876;9.830;2022-12-10T09:57:24;5.60;;;5.00;;
31442;SDS011;18065;55.876;9.830;2022-12-10T09:59:59;5.40;;;4.90;;
31442;SDS011;18065;55.876;9.830;2022-12-10T10:02:32;5.78;;;4.82;;
31442;SDS011;18065;55.876;9.830;2022-12-10T10:05:05;4.72;;;4.30;;
31442;SDS011;18065;55.876;9.830;2022-12-10T10:07:41;5.07;;;4.53;;
31442;SDS011;18065;55.876;9.830;2022-12-10T10:10:18;5.50;;;5.00;;
31442;SDS011;18065;55.876;9.830;2022-12-10T10:12:51;7.85;;;4.57;;
31442;SDS011;18065;55.876;9.830;2022-12-10T10:15:29;5.43;;;4.78;;
31442;SDS011;18065;55.876;9.830;2022-12-10T10:18:02;5.30;;;4.32;;
31442;SDS011;18065;55.876;9.830;2022-12-10T10:20:36;5.03;;;4.47;;
31442;SDS011;18065;55.876;9.830;2022-12-10T10:23:05;5.55;;;4.90;;
31442;SDS011;18065;55.876;9.830;2022-12-10T10:25:36;5.80;;;5.15;;
31442;SDS011;18065;55.876;9.830;2022-12-10T10:28:04;5.43;;;4.55;;
31442;SDS011;18065;55.876;9.830;2022-12-10T10:30:36;5.20;;;4.68;;
31442;SDS011;18065;55.876;9.830;2022-12-10T10:33:07;5.20;;;4.60;;
31442;SDS011;18065;55.876;9.830;2022-12-10T10:35:47;5.32;;;4.75;;
31442;SDS011;18065;55.876;9.830;2022-12-10T10:38:21;4.50;;;4.10;;
31442;SDS011;18065;55.876;9.830;2022-12-10T10:40:52;5.43;;;4.88;;
31442;SDS011;18065;55.876;9.830;2022-12-10T10:43:23;5.07;;;4.68;;
31442;SDS011;18065;55.876;9.830;2022-12-10T10:45:56;5.65;;;4.88;;
31442;SDS011;18065;55.876;9.830;2022-12-10T10:48:30;4.57;;;4.18;;
31442;SDS011;18065;55.876;9.830;2022-12-10T10:51:05;5.10;;;4.60;;
31442;SDS011;18065;55.876;9.830;2022-12-10T10:53:40;4.55;;;4.15;;
31442;SDS011;18065;55.876;9.830;2022-12-10T10:58:46;5.18;;;4.68;;
31442;SDS011;18065;55.876;9.830;2022-12-10T11:01:21;4.80;;;4.40;;
31442;SDS011;18065;55.876;9.830;2022-12-10T11:03:51;5.07;;;4.50;;
31442;SDS011;18065;55.876;9.830;2022-12-10T11:06:23;5.13;;;4.63;;
31442;SDS011;18065;55.876;9.830;2022-12-10T11:08:54;4.80;;;4.30;;
31442;SDS011;18065;55.876;9.830;2022-12-10T11:11:29;5.90;;;4.90;;
31442;SDS011;18065;55.876;9.830;2022-12-10T11:14:13;6.15;;;4.90;;
31442;SDS011;18065;55.876;9.830;2022-12-10T11:16:54;5.63;;;4.85;;
31442;SDS011;18065;55.876;9.830;2022-12-10T11:19:29;5.15;;;4.65;;
31442;SDS011;18065;55.876;9.830;2022-12-10T11:22:15;4.80;;;4.30;;
31442;SDS011;18065;55.876;9.830;2022-12-10T11:24:46;4.43;;;4.03;;
31442;SDS011;18065;55.876;9.830;2022-12-10T11:27:16;4.63;;;4.22;;
31442;SDS011;18065;55.876;9.830;2022-12-10T11:29:55;4.60;;;4.20;;
31442;SDS011;18065;55.876;9.830;2022-12-10T11:32:39;5.03;;;4.35;;
31442;SDS011;18065;55.876;9.830;2022-12-10T11:35:19;5.88;;;4.45;;
31442;SDS011;18065;55.876;9.830;2022-12-10T11:37:57;4.72;;;4.10;;
31442;SDS011;18065;55.876;9.830;2022-12-10T11:40:35;4.65;;;4.20;;
31442;SDS011;18065;55.876;9.830;2022-12-10T11:46:12;5.25;;;4.75;;
31442;SDS011;18065;55.876;9.830;2022-12-10T11:49:02;5.57;;;4.88;;
31442;SDS011;18065;55.876;9.830;2022-12-10T11:51:41;5.15;;;4.65;;
31442;SDS011;18065;55.876;9.830;2022-12-10T11:57:15;4.60;;;4.20;;
31442;SDS011;18065;55.876;9.830;2022-12-10T11:59:50;4.93;;;4.28;;
31442;SDS011;18065;55.876;9.830;2022-12-10T12:02:40;4.97;;;4.45;;
31442;SDS011;18065;55.876;9.830;2022-12-10T12:05:35;4.60;;;4.20;;
31442;SDS011;18065;55.876;9.830;2022-12-10T12:08:13;4.38;;;3.97;;
31442;SDS011;18065;55.876;9.830;2022-12-10T12:10:51;4.63;;;4.18;;
31442;SDS011;18065;55.876;9.830;2022-12-10T12:13:26;4.70;;;4.28;;
31442;SDS011;18065;55.876;9.830;2022-12-10T12:16:01;5.03;;;4.63;;
31442;SDS011;18065;55.876;9.830;2022-12-10T12:21:11;4.55;;;4.10;;
31442;SDS011;18065;55.876;9.830;2022-12-10T12:23:45;4.45;;;4.05;;
31442;SDS011;18065;55.876;9.830;2022-12-10T12:26:19;5.28;;;4.78;;
31442;SDS011;18065;55.876;9.830;2022-12-10T12:28:54;4.88;;;4.40;;
31442;SDS011;18065;55.876;9.830;2022-12-10T12:31:30;4.68;;;4.28;;
31442;SDS011;18065;55.876;9.830;2022-12-10T12:34:03;4.25;;;3.85;;
31442;SDS011;18065;55.876;9.830;2022-12-10T12:36:43;5.03;;;4.47;;
31442;SDS011;18065;55.876;9.830;2022-12-10T12:39:14;4.90;;;4.40;;
31442;SDS011;18065;55.876;9.830;2022-12-10T12:41:55;5.03;;;4.20;;
31442;SDS011;18065;55.876;9.830;2022-12-10T12:44:32;4.90;;;4.40;;
31442;SDS011;18065;55.876;9.830;2022-12-10T12:47:11;4.18;;;3.80;;
31442;SDS011;18065;55.876;9.830;2022-12-10T12:49:50;4.78;;;4.28;;
31442;SDS011;18065;55.876;9.830;2022-12-10T12:52:25;4.32;;;3.88;;
31442;SDS011;18065;55.876;9.830;2022-12-10T12:55:02;4.53;;;4.00;;
31442;SDS011;18065;55.876;9.830;2022-12-10T12:57:41;4.20;;;3.80;;
31442;SDS011;18065;55.876;9.830;2022-12-10T13:00:14;3.90;;;3.60;;
31442;SDS011;18065;55.876;9.830;2022-12-10T13:02:50;4.32;;;3.92;;
31442;SDS011;18065;55.876;9.830;2022-12-10T13:05:27;4.43;;;4.03;;
31442;SDS011;18065;55.876;9.830;2022-12-10T13:11:19;4.68;;;4.28;;
31442;SDS011;18065;55.876;9.830;2022-12-10T13:17:05;4.45;;;4.07;;
31442;SDS011;18065;55.876;9.830;2022-12-10T13:19:37;4.55;;;4.15;;
31442;SDS011;18065;55.876;9.830;2022-12-10T13:22:09;4.78;;;4.38;;
31442;SDS011;18065;55.876;9.830;2022-12-10T13:27:43;3.88;;;3.58;;
31442;SDS011;18065;55.876;9.830;2022-12-10T13:30:31;4.80;;;4.40;;
31442;SDS011;18065;55.876;9.830;2022-12-10T13:33:09;4.50;;;4.10;;
31442;SDS011;18065;55.876;9.830;2022-12-10T13:35:48;4.25;;;3.85;;
31442;SDS011;18065;55.876;9.830;2022-12-10T13:38:23;4.30;;;3.90;;
31442;SDS011;18065;55.876;9.830;2022-12-10T13:40:58;4.20;;;3.80;;
31442;SDS011;18065;55.876;9.830;2022-12-10T13:43:44;4.10;;;3.80;;
31442;SDS011;18065;55.876;9.830;2022-12-10T13:46:33;4.50;;;4.07;;
31442;SDS011;18065;55.876;9.830;2022-12-10T13:49:18;4.70;;;4.30;;
31442;SDS011;18065;55.876;9.830;2022-12-10T13:51:51;4.90;;;4.10;;
31442;SDS011;18065;55.876;9.830;2022-12-10T13:54:29;3.75;;;3.45;;
31442;SDS011;18065;55.876;9.830;2022-12-10T13:57:24;3.72;;;3.42;;
31442;SDS011;18065;55.876;9.830;2022-12-10T14:00:10;4.20;;;3.83;;
31442;SDS011;18065;55.876;9.830;2022-12-10T14:02:55;4.00;;;3.53;;
31442;SDS011;18065;55.876;9.830;2022-12-10T14:05:38;4.13;;;3.83;;
31442;SDS011;18065;55.876;9.830;2022-12-10T14:08:16;4.60;;;4.10;;
31442;SDS011;18065;55.876;9.830;2022-12-10T14:10:47;4.72;;;4.32;;
31442;SDS011;18065;55.876;9.830;2022-12-10T14:13:18;4.93;;;4.43;;
31442;SDS011;18065;55.876;9.830;2022-12-10T14:15:55;5.05;;;4.40;;
31442;SDS011;18065;55.876;9.830;2022-12-10T14:18:30;5.35;;;4.03;;
31442;SDS011;18065;55.876;9.830;2022-12-10T14:20:59;4.85;;;4.38;;
31442;SDS011;18065;55.876;9.830;2022-12-10T14:23:33;4.28;;;3.88;;
31442;SDS011;18065;55.876;9.830;2022-12-10T14:26:06;5.32;;;4.35;;
31442;SDS011;18065;55.876;9.830;2022-12-10T14:28:39;4.78;;;4.30;;
31442;SDS011;18065;55.876;9.830;2022-12-10T14:31:16;4.40;;;4.00;;
31442;SDS011;18065;55.876;9.830;2022-12-10T14:33:48;4.35;;;3.95;;
31442;SDS011;18065;55.876;9.830;2022-12-10T14:36:21;4.40;;;4.00;;
31442;SDS011;18065;55.876;9.830;2022-12-10T14:38:54;4.53;;;4.13;;
31442;SDS011;18065;55.876;9.830;2022-12-10T14:41:23;4.60;;;4.20;;
31442;SDS011;18065;55.876;9.830;2022-12-10T14:43:55;4.10;;;3.67;;
31442;SDS011;18065;55.876;9.830;2022-12-10T14:46:32;4.43;;;4.03;;
31442;SDS011;18065;55.876;9.830;2022-12-10T14:49:00;4.43;;;4.03;;
31442;SDS011;18065;55.876;9.830;2022-12-10T14:51:31;4.13;;;3.72;;
31442;SDS011;18065;55.876;9.830;2022-12-10T14:54:02;4.57;;;4.15;;
31442;SDS011;18065;55.876;9.830;2022-12-10T14:56:32;4.25;;;3.85;;
31442;SDS011;18065;55.876;9.830;2022-12-10T14:59:04;4.05;;;3.65;;
31442;SDS011;18065;55.876;9.830;2022-12-10T15:01:43;3.92;;;3.53;;
31442;SDS011;18065;55.876;9.830;2022-12-10T15:04:17;3.95;;;3.55;;
31442;SDS011;18065;55.876;9.830;2022-12-10T15:06:47;3.63;;;3.33;;
31442;SDS011;18065;55.876;9.830;2022-12-10T15:09:18;4.20;;;3.80;;
31442;SDS011;18065;55.876;9.830;2022-12-10T15:11:52;4.25;;;3.90;;
31442;SDS011;18065;55.876;9.830;2022-12-10T15:14:21;4.70;;;3.50;;
31442;SDS011;18065;55.876;9.830;2022-12-10T15:16:54;3.55;;;3.25;;
31442;SDS011;18065;55.876;9.830;2022-12-10T15:19:24;4.18;;;3.78;;
31442;SDS011;18065;55.876;9.830;2022-12-10T15:22:01;4.10;;;3.70;;
31442;SDS011;18065;55.876;9.830;2022-12-10T15:24:46;3.78;;;3.47;;
31442;SDS011;18065;55.876;9.830;2022-12-10T15:27:15;4.30;;;3.70;;
31442;SDS011;18065;55.876;9.830;2022-12-10T15:29:46;3.95;;;3.60;;
31442;SDS011;18065;55.876;9.830;2022-12-10T15:32:19;3.58;;;3.28;;
31442;SDS011;18065;55.876;9.830;2022-12-10T15:34:52;3.67;;;3.38;;
31442;SDS011;18065;55.876;9.830;2022-12-10T15:37:23;3.80;;;3.42;;
31442;SDS011;18065;55.876;9.830;2022-12-10T15:39:54;3.53;;;3.22;;
31442;SDS011;18065;55.876;9.830;2022-12-10T15:42:36;3.70;;;3.40;;
31442;SDS011;18065;55.876;9.830;2022-12-10T15:47:57;3.78;;;3.33;;